News    GLOBAL    TV    HD    3D    Ultra HD    Radio    Data    Temp.FTA    [-]    Necodat

Director si browsing pentru Sateliții recepționați în Europa
Căutare canal TV:
Astra 2G (28.2°E) Transponder 95
26.0E>
<30.5E

Poziția satelitului pe orbită Satelit Norad .ini News canale Numai gratuite ( FTA) Longitude Declination now Max declination Azimuth Elevation Ultima actualizare
28.2°E Astra 2E 39285 340 145 28.51°E 0.05° 0.06° N/A N/A 2024-05-29 13:55
28.2°E Astra 2F 38778 138 66 28.23°E -0.03° 0.03° N/A N/A 2024-05-28 21:03
28.2°E Astra 2G 40364 246 171 28.23°E 0.06° 0.06° N/A N/A 2024-05-28 15:51

Sortare după: Encriptare: Mod de afişare:

40 înregistrări - Sortare după frecvență - Cele mai recente actualizări: CET

Pos Satellite Frequence Pol Txp Beam Standard Modulation SR/FEC Network, bitrate NID TID
28.2°E 40Astra 2G 11552.75H95EuropeDVB-S28PSK23000 2/344.5 Mb/s 22095 Cerere de actualizare a listelor KingOfSat
Craft Extra
Marea Britanie Teleshopping Sky Digital Necodat 9537 2332 2333 eng  305  2332    2024-04-27 +
Jewellery Channel
Marea Britanie Teleshopping Sky Digital Necodat 55100 2346 2347 eng  267  2346    2024-04-27 +
High Street TV 2 Marea Britanie Teleshopping Sky Digital Necodat 55102 2352 2353 eng  273  2352    2024-04-27 +
High Street TV 3
Marea Britanie Teleshopping Sky Digital Necodat 55104 2338 2339 eng  266  2338    2024-04-27 +
NTD TV (New Tang Dynasty TV) S.U.A. General Sky Digital Necodat 55106 2306 2307 eng  257  2306    2024-04-27 +
Noor TV Marea Britanie Religios Sky Digital Necodat 55109 2355 2356 eng  264  2355    2024-04-27 +
Pitaara Marea Britanie Divertisment Sky Digital Necodat 55110 2313 2323 eng  275  2313    2024-04-27 +
55112 Sky Digital Necodat 55112 2351 2354 eng  262  2351    2024-05-22
Clubland TV
Marea Britanie Muzică Sky Digital Necodat 55113 2557 2558 eng  256  2557    2024-04-27 +
Now Rock Marea Britanie Muzică Sky Digital Necodat 55114 2560 2561 eng  261  2560    2024-04-27 +
NDTV 24x7 India Știri Sky Digital Necodat 55116 2360 2361 eng  269  2360    2024-04-27 +
Geo News Pakistan Știri Sky Digital Necodat 55119 2359 2362 urd  272  2359    2024-05-24 +

SonLife Broadcasting Network Marea Britanie Religios Sky Digital Necodat 55120 2331 2329 esp
2330 eng 
277  2331  2328  2024-04-27 +
Ary One World Pakistan Știri Sky Digital Necodat 55121 2365 2366 urd  284  2365    2024-05-28 +
Ary Digital UK Pakistan General Sky Digital Necodat 55125 2357 2358 eng  268  2357    2024-05-23 +
Channel S Marea Britanie General Sky Digital Necodat 55142 2326 2324 eng  276  2326    2024-04-27 +
HUM Masala Marea Britanie Divertisment Sky Digital Necodat 55146 2343 2342 eng  281  2343    2024-04-27 +
PTV Global Pakistan General Sky Digital Necodat 55151 2335 2337 urd  259  2335    2024-04-27 +
Kanshi TV Marea Britanie Divertisment Sky Digital Necodat 55155 2327 2345 eng  279  2327    2024-04-27 +
Hum Europe Pakistan General Sky Digital Necodat 55181 2341 2340 urd  285  2341    2024-04-27 +
Deen TV Marea Britanie Religios Sky Digital Necodat 55185 2314 2315 eng  260  2314    2024-04-27 +
Capital XTRA Freesat
Sky Digital
Necodat 9549   2320 eng  313  2320    2024-04-27
Radio X Freesat
Sky Digital
Necodat 9559   2316 eng  318  2316    2024-04-27
Capital Freesat
Sky Digital
Necodat 9560   2318 eng  319  2318    2024-04-27
Gold Freesat
Sky Digital
Necodat 9561   2310  258  2310    2024-04-27
Khushkhabri Sky Digital Necodat 9563   2336  320  2336    2024-04-27
Classic FM Freesat
Sky Digital
Necodat 9570   2344 eng  263  2344    2024-04-27
LBC News Sky Digital Necodat 55131   2334  282  2334    2024-04-27
Smooth Sky Digital Necodat 55132   2312  270  2312    2024-04-27
Heart Dance Sky Digital Necodat 55133   2311 eng  271  2311    2024-04-27
Virgin Radio Italia Muzică Sky Digital Necodat 55135   2321 eng  278  2321    2024-04-27 +
TWR Sky Digital Necodat 55136   2322  280  2322    2024-04-27
Heart 90s Sky Digital Necodat 55139   2325 eng  265  2325    2024-04-27
Panjab Radio Sky Digital Necodat 55186   2305  295  2305    2024-04-27
Sukh Sagar Sky Digital Necodat 55187   2308  296  2308    2024-04-27
BFBS Radio Sky Digital Necodat 55188   2309  297  2309    2024-04-27
LBC Sky Digital Necodat 55189   2317  298  2317    2024-04-27
Heart Sky Digital Necodat 55190   2319  299  2319    2024-04-27
Heart 80s Sky Digital Necodat 55191   2350  300  2350    2024-04-27
talkSPORT Sky Digital Necodat 55198   2348 eng  283  2348    2024-04-27

Detailed transponder stream properties (11552.75 H)

SID Ident. PID Format Colorimetry Width Height Aspect Ratio Frame rate
Sampling rate
Bitrate mode Bitrate Scan type Ultima actualizare
9537 2332 MPEG Video Main, Main 4:2:0 544 576 1.778 25.000 FPS VBR Interlaced 2024-05-29
9537 2333 MPEG Audio, Layer 22 channels 48000 CBR 128000 2024-05-29
9549 2320 MPEG Audio, Layer 22 channels 48000 CBR 160000 2024-05-29
9559 2316 MPEG Audio, Layer 22 channels 48000 CBR 160000 2024-05-29
9560 2318 MPEG Audio, Layer 22 channels 48000 CBR 160000 2024-05-29
9561 2310 MPEG Audio, Layer 22 channels 48000 CBR 160000 2024-05-29
9563 2336 MPEG Audio, Layer 21 channel 48000 CBR 96000 2024-05-29
9570 2344 MPEG Audio, Layer 22 channels 48000 CBR 192000 2024-05-29
55100 2346 MPEG Video Main, Main 4:2:0 720 576 1.778 25.000 FPS VBR Interlaced 2024-05-29
55100 2347 MPEG Audio, Layer 22 channels 48000 CBR 192000 2024-05-29
55102 2352 MPEG Video Main, Main 4:2:0 544 576 1.778 25.000 FPS VBR Interlaced 2024-05-29
55102 2353 MPEG Audio, Layer 22 channels 48000 CBR 128000 2024-05-29
55104 2338 MPEG Video Main, Main 4:2:0 544 576 1.778 25.000 FPS VBR Interlaced 2024-05-29
55104 2339 MPEG Audio, Layer 22 channels 48000 CBR 128000 2024-05-29
55106 2306 MPEG Video Main, Main 4:2:0 544 576 1.778 25.000 FPS VBR Interlaced 2024-05-29
55106 2307 MPEG Audio, Layer 22 channels 48000 CBR 128000 2024-05-29
55109 2355 MPEG Video Main, Main 4:2:0 544 576 1.778 25.000 FPS VBR Interlaced 2024-05-29
55109 2356 MPEG Audio, Layer 22 channels 48000 CBR 128000 2024-05-29
55110 2313 MPEG Video Main, Main 4:2:0 544 576 1.778 25.000 FPS VBR Interlaced 2024-05-29
55110 2323 MPEG Audio, Layer 22 channels 48000 CBR 128000 2024-05-29
55112 2351 MPEG Video Main, Main 4:2:0 544 576 1.778 25.000 FPS VBR Interlaced 2024-05-29
55112 2354 MPEG Audio, Layer 22 channels 48000 CBR 128000 2024-05-29
55113 2557 MPEG Video Main, Main 4:2:0 544 576 1.778 25.000 FPS VBR Interlaced 2024-05-29
55113 2558 MPEG Audio, Layer 22 channels 48000 CBR 192000 2024-05-29
55114 2560 MPEG Video Main, Main 4:2:0 544 576 1.778 25.000 FPS VBR Interlaced 2024-05-29
55114 2561 MPEG Audio, Layer 22 channels 48000 CBR 192000 2024-05-29
55116 2360 MPEG Video Main, Main 4:2:0 544 576 1.333 25.000 FPS VBR Interlaced 2024-05-29
55116 2361 MPEG Audio, Layer 22 channels 48000 CBR 128000 2024-05-29
55119 2359 MPEG Video Main, Main 4:2:0 544 576 1.333 25.000 FPS VBR Interlaced 2024-05-29
55119 2362 MPEG Audio, Layer 22 channels 48000 CBR 128000 2024-05-29
55120 2328 Teletext 2024-05-29
55120 2329 MPEG Audio, Layer 22 channels 48000 CBR 128000 2024-05-29
55120 2330 MPEG Audio, Layer 22 channels 48000 CBR 128000 2024-05-29
55120 2331 MPEG Video Main, Main 4:2:0 544 576 1.778 25.000 FPS VBR Interlaced 2024-05-29
55121 2365 MPEG Video Main, Main 4:2:0 544 576 1.778 25.000 FPS VBR Interlaced 2024-05-29
55121 2366 MPEG Audio, Layer 22 channels 48000 CBR 128000 2024-05-29
55122 2367 MPEG Video Main, Main 4:2:0 544 576 1.778 25.000 FPS VBR Interlaced 2024-05-29
55122 2368 MPEG Audio, Layer 22 channels 48000 CBR 128000 2024-05-29
55125 2357 MPEG Video Main, Main 4:2:0 544 576 1.333 25.000 FPS VBR Interlaced 2024-05-29
55125 2358 MPEG Audio, Layer 22 channels 48000 CBR 128000 2024-05-29
55131 2334 MPEG Audio, Layer 22 channels 48000 CBR 128000 2024-05-29
55132 2312 MPEG Audio, Layer 22 channels 48000 CBR 160000 2024-05-29
55133 2311 MPEG Audio, Layer 22 channels 48000 CBR 160000 2024-05-29
55135 2321 MPEG Audio, Layer 22 channels 48000 CBR 192000 2024-05-29
55136 2322 MPEG Audio, Layer 21 channel 48000 CBR 64000 2024-05-29
55139 2325 MPEG Audio, Layer 22 channels 48000 CBR 160000 2024-05-29
55142 2324 MPEG Audio, Layer 22 channels 48000 CBR 128000 2024-05-29
55142 2326 MPEG Video Main, Main 4:2:0 544 576 1.778 25.000 FPS VBR Interlaced 2024-05-29
55146 2342 MPEG Audio, Layer 22 channels 48000 CBR 192000 2024-05-29
55146 2343 MPEG Video Main, Main 4:2:0 544 576 1.333 25.000 FPS VBR Interlaced 2024-05-29
55151 2335 MPEG Video Main, Main 4:2:0 544 576 1.333 25.000 FPS VBR Interlaced 2024-05-29
55151 2337 MPEG Audio, Layer 22 channels 48000 CBR 128000 2024-05-29
55155 2327 MPEG Video Main, Main 4:2:0 544 576 1.778 25.000 FPS VBR Interlaced 2024-05-29
55155 2345 MPEG Audio, Layer 22 channels 48000 CBR 192000 2024-05-29
55181 2340 MPEG Audio, Layer 22 channels 48000 CBR 128000 2024-05-29
55181 2341 MPEG Video Main, Main 4:2:0 544 576 1.333 25.000 FPS VBR Interlaced 2024-05-29
55185 2314 MPEG Video Main, Main 4:2:0 720 576 1.778 25.000 FPS VBR Interlaced 2024-05-29
55185 2315 MPEG Audio, Layer 22 channels 48000 CBR 128000 2024-05-29
55186 2305 MPEG Audio, Layer 21 channel 48000 CBR 128000 2024-05-29
55187 2308 MPEG Audio, Layer 21 channel 48000 CBR 96000 2024-05-29
55188 2309 MPEG Audio, Layer 22 channels 48000 CBR 128000 2024-05-29
55189 2317 MPEG Audio, Layer 22 channels 48000 CBR 128000 2024-05-29
55190 2319 MPEG Audio, Layer 22 channels 48000 CBR 160000 2024-05-29
55191 2350 MPEG Audio, Layer 22 channels 48000 CBR 160000 2024-05-29
55198 2348 MPEG Audio, Layer 21 channel 32000 CBR 80000 2024-05-29

Comentariile / actualizările tale

Legendă

8K - Ultra HD

4K - Ultra HD

High Definition

Transmisie sporadică sau completă 16/9

     

Video: MPEG-4/AVC/H-264

     

Video: MPEG-H/HEVC/H-265

     

Video: MPEG-I/VVC/H-266

     

Necodat

     

Criptat

Afișează captura de ecran

3D

Transmisiuni video ÎN DIRECT

+

Schimbare jurnal

     

DVB-S

     

DVB-S2

     

DVB-S2X


PROFIL - INDEX - ȘTIRI - SATELIȚI - PACHETE - CANALE TV - CĂUTARE - SEMNALE (BEAMS) - Transmisii (Feeds) - Groapa de gunoi - Comentariile / actualizările tale

All contents on this site are protected by copyright and owned by KingOfSat, except contents shown in some screenshots that belong to their respective owners. Screenshots are only proposed to help illustrating, identifying and promoting corresponding TV channels. For all questions/remarks related to copyright, please contact KingOfSat webmaster.